Terminal Aerodrome Forecast
Issued by NWS Duluth, MN

Home | Current Version | Previous Version | Text Only | Print | Product List | Glossary On
Versions: 1 2 3 4 5 6 7 8 9 10 11 12 13 14 15 16 17 18 19 20 21 22 23 24
000
FTUS43 KDLH 141100
TAFDLH
TAF
KDLH 141121Z 1412/1512 35016G26KT P6SM SCT030
      TEMPO 1412/1416 SCT030
     FM141600 34016G26KT P6SM VCSH SCT025 BKN050
     FM150200 33012KT P6SM SCT050=

USA.gov is the U.S. government's official web portal to all federal, state and local government web resources and services.